Terminal Aerodrome Forecast
Issued by NWS

Home | Current Version | Previous Version | Text Only | Print | Product List | Glossary Off
Versions: 1 2 3 4 5 6 7 8 9 10 11 12 13 14 15 16 17 18 19 20

000
FTUS43 KABR 202322
TAFPIR
TAF
KPIR 202322Z 2100/2124 15010KT P6SM VCSH OVC150
     FM210400 13007KT P6SM OVC060
     FM211800 14011KT P6SM OVC040=

USA.gov is the U.S. government's official web portal to all federal, state and local government web resources and services.